CYNC

Wemindji Airport

ICAO Code CYNC
IATA Code YNC
Name Wemindji Airport
Location Wemindji, Quebec, CA
Elevation 66 Feet / 20.1 Meters
Latitude 53.01055556
Longitude -78.83111111
METAR CYNC 052000Z 33014G20KT 10SM -SN BKN006 OVC025 02/M00 A2987 RMK SC6SC2 LAST STFD OBS/NEXT 101300UTC SLP117
Extra information Display Charts and CFS
Display NOTAMS
Runway Length Width Surface Elevation
10 3511 ft 100 ft GRAVEL 30 ft
28 3511 ft 100 ft GRAVEL 66 ft